^^
Saratoga-Weather Station Historical Data
Daily Summary for September 15, 2021 Units:  English    Metric   Both
Daily Weekly Monthly Yearly Custom
  High: Low: Average:
Temperature: 32 °F 28.2 °F 30.4 °F
Dew Point: 31.3 °F 25.7 °F 28.8 °F
Humidity: 97% 89% 94%
Wind Speed: 0mph 0mph 0mph
Wind Gust: 0mph - -
Wind- -
Pressure: 30.2 in 30 in -
Precipitation: 0 in    
Historical Graphs
 
 
Tabular Data for September 15, 2021
Time Temperature Dew Point Pressure Wind Wind Speed Wind Gust Humidity Rainfall Rate (Hourly) solar
00:03 31.8 °F 31.1 °F 30 in Calm     97% 0.01 in 0 W/m2
00:08 31.8 °F 31.1 °F 30 in Calm     97% 0.01 in 0 W/m2
00:13 31.8 °F 31.1 °F 30 in Calm     97% 0.01 in 0 W/m2
00:18 31.8 °F 31.1 °F 30 in Calm     97% 0.01 in 0 W/m2
00:23 31.8 °F 31.1 °F 30 in Calm     97% 0.01 in 0 W/m2
00:28 31.8 °F 31.1 °F 30 in Calm     97% 0.01 in 0 W/m2
00:33 31.8 °F 31.1 °F 30 in Calm     97% 0.01 in 0 W/m2
00:38 31.8 °F 31.1 °F 30 in Calm     97% 0.01 in 0 W/m2
00:43 31.8 °F 31.1 °F 30 in Calm     97% 0.01 in 0 W/m2
00:48 31.8 °F 31.1 °F 30 in Calm     97% 0.01 in 0 W/m2
00:53 32 °F 31.3 °F 30 in Calm     97% 0 in 0 W/m2
00:58 31.8 °F 31.1 °F 30 in Calm     97% 0 in 0 W/m2
01:03 31.8 °F 31.1 °F 30 in Calm     97% 0 in 0 W/m2
01:08 31.8 °F 31.1 °F 30 in Calm     97% 0 in 0 W/m2
01:13 31.8 °F 31.1 °F 30 in Calm     97% 0 in 0 W/m2
01:18 32 °F 31.3 °F 30 in Calm     97% 0 in 0 W/m2
01:23 31.8 °F 31.1 °F 30 in Calm     97% 0 in 0 W/m2
01:28 32 °F 31.3 °F 30 in Calm     97% 0 in 0 W/m2
01:34 32 °F 31.3 °F 30 in Calm     97% 0 in 0 W/m2
01:39 31.8 °F 31.1 °F 30 in Calm     97% 0 in 0 W/m2
01:44 31.8 °F 31.1 °F 30 in Calm     97% 0 in 0 W/m2
01:49 31.8 °F 31.1 °F 30 in Calm     97% 0 in 0 W/m2
01:54 31.8 °F 31.1 °F 30 in Calm     97% 0 in 0 W/m2
01:59 31.8 °F 31.1 °F 30 in Calm     97% 0 in 0 W/m2
02:04 31.8 °F 31.1 °F 30 in Calm     97% 0 in 0 W/m2
02:09 31.8 °F 31.1 °F 30 in Calm     97% 0 in 0 W/m2
02:14 31.6 °F 30.9 °F 30 in Calm     97% 0 in 0 W/m2
02:19 31.6 °F 30.9 °F 30 in Calm     97% 0 in 0 W/m2
02:24 31.6 °F 30.9 °F 30 in Calm     97% 0 in 0 W/m2
02:29 31.6 °F 30.9 °F 30 in Calm     97% 0 in 0 W/m2
02:34 31.6 °F 30.9 °F 30 in Calm     97% 0 in 0 W/m2
02:39 31.6 °F 30.9 °F 30 in Calm     97% 0 in 0 W/m2
02:44 31.5 °F 30.7 °F 30 in Calm     97% 0 in 0 W/m2
02:49 31.5 °F 30.7 °F 30 in Calm     97% 0 in 0 W/m2
02:54 31.5 °F 30.7 °F 30 in Calm     97% 0 in 0 W/m2
02:59 31.5 °F 30.7 °F 30 in Calm     97% 0 in 0 W/m2
03:04 31.5 °F 30.7 °F 30 in Calm     97% 0 in 0 W/m2
03:09 31.5 °F 30.7 °F 30 in Calm     97% 0 in 0 W/m2
03:14 31.3 °F 30.6 °F 30 in Calm     97% 0 in 0 W/m2
03:19 31.3 °F 30.6 °F 30 in Calm     97% 0 in 0 W/m2
03:24 31.3 °F 30.6 °F 30 in Calm     97% 0 in 0 W/m2
03:29 31.3 °F 30.6 °F 30 in Calm     97% 0 in 0 W/m2
03:34 31.3 °F 30.6 °F 30 in Calm     97% 0 in 0 W/m2
03:39 31.3 °F 30.2 °F 30.1 in Calm     96% 0 in 0 W/m2
03:44 31.3 °F 30.2 °F 30.1 in Calm     96% 0 in 0 W/m2
03:49 31.3 °F 30.2 °F 30.1 in Calm     96% 0 in 0 W/m2
03:54 31.5 °F 30.4 °F 30.1 in Calm     96% 0 in 0 W/m2
03:59 31.5 °F 30.4 °F 30.1 in Calm     96% 0 in 0 W/m2
04:04 31.6 °F 30.6 °F 30.1 in Calm     96% 0 in 0 W/m2
04:09 31.6 °F 30.4 °F 30.1 in Calm     95% 0 in 0 W/m2
04:14 31.6 °F 30.4 °F 30.1 in Calm     95% 0 in 0 W/m2
04:19 31.6 °F 30.4 °F 30.1 in Calm     95% 0 in 0 W/m2
04:24 31.6 °F 30.2 °F 30.1 in Calm     94% 0 in 0 W/m2
04:29 31.8 °F 30.4 °F 30.1 in Calm     94% 0 in 0 W/m2
04:34 31.6 °F 29.8 °F 30.1 in Calm     93% 0 in 0 W/m2
04:39 31.6 °F 29.8 °F 30.1 in Calm     93% 0 in 0 W/m2
04:49 31.5 °F 29.7 °F 30.1 in Calm     93% 0 in 0 W/m2
04:54 31.3 °F 29.5 °F 30.1 in Calm     93% 0 in 0 W/m2
04:59 31.3 °F 29.3 °F 30.1 in Calm     92% 0 in 0 W/m2
05:04 31.1 °F 29.1 °F 30.1 in Calm     92% 0 in 0 W/m2
05:09 30.9 °F 28.6 °F 30.1 in Calm     91% 0 in 0 W/m2
05:14 30.7 °F 28.4 °F 30.1 in Calm     91% 0 in 0 W/m2
05:19 30.7 °F 28.4 °F 30.1 in Calm     91% 0 in 0 W/m2
05:24 30.6 °F 28.2 °F 30.1 in Calm     91% 0 in 0 W/m2
05:29 30.6 °F 28.2 °F 30.1 in Calm     91% 0 in 0 W/m2
05:34 30.4 °F 28 °F 30.1 in Calm     91% 0 in 0 W/m2
05:39 30.2 °F 27.9 °F 30.1 in Calm     91% 0 in 0 W/m2
05:44 30.2 °F 27.9 °F 30.1 in Calm     91% 0 in 0 W/m2
05:49 30 °F 27.7 °F 30.1 in Calm     91% 0 in 0 W/m2
05:54 30 °F 27.7 °F 30.1 in Calm     91% 0 in 0 W/m2
05:59 29.8 °F 27.5 °F 30.1 in Calm     91% 0 in 0 W/m2
06:04 29.8 °F 27.5 °F 30.1 in Calm     91% 0 in 0 W/m2
06:09 29.7 °F 27.3 °F 30.1 in Calm     91% 0 in 0 W/m2
06:14 29.5 °F 27.1 °F 30.1 in Calm     91% 0 in 0 W/m2
06:19 29.3 °F 27 °F 30.1 in Calm     91% 0 in 0 W/m2
06:24 29.1 °F 26.8 °F 30.1 in Calm     91% 0 in 0 W/m2
06:29 29.1 °F 26.8 °F 30.1 in Calm     91% 0 in 0 W/m2
06:34 28.9 °F 26.6 °F 30.1 in Calm     91% 0 in 0 W/m2
06:39 28.9 °F 26.6 °F 30.1 in Calm     91% 0 in 0 W/m2
06:44 28.9 °F 27 °F 30.1 in Calm     92% 0 in 0 W/m2
06:49 28.8 °F 26.8 °F 30.1 in Calm     92% 0 in 0 W/m2
06:54 28.8 °F 26.8 °F 30.1 in Calm     92% 0 in 0 W/m2
06:59 28.8 °F 26.4 °F 30.1 in Calm     91% 0 in 0 W/m2
07:04 28.8 °F 26.4 °F 30.1 in Calm     91% 0 in 0 W/m2
07:09 28.6 °F 26.2 °F 30.1 in Calm     91% 0 in 0 W/m2
07:14 28.6 °F 26.2 °F 30.1 in Calm     91% 0 in 0 W/m2
07:19 28.6 °F 26.2 °F 30.1 in Calm     91% 0 in 0 W/m2
07:29 28.6 °F 26.2 °F 30.1 in Calm     91% 0 in 0 W/m2
07:34 28.6 °F 26.2 °F 30.2 in Calm     91% 0 in 0 W/m2
07:39 28.6 °F 26.2 °F 30.2 in Calm     91% 0 in 0 W/m2
07:44 28.6 °F 26.2 °F 30.2 in Calm     91% 0 in 0 W/m2
07:49 28.6 °F 26.2 °F 30.2 in Calm     91% 0 in 0 W/m2
07:54 28.6 °F 26.2 °F 30.2 in Calm     91% 0 in 0 W/m2
07:59 28.6 °F 26.2 °F 30.2 in Calm     91% 0 in 0 W/m2
08:04 28.6 °F 26.2 °F 30.2 in Calm     91% 0 in 0 W/m2
08:14 28.6 °F 26.2 °F 30.2 in Calm     91% 0 in 0 W/m2
08:19 28.4 °F 26.1 °F 30.2 in Calm     91% 0 in 0 W/m2
08:24 28.4 °F 26.1 °F 30.2 in Calm     91% 0 in 0 W/m2
08:29 28.4 °F 25.9 °F 30.2 in Calm     90% 0 in 0 W/m2
08:34 28.4 °F 25.9 °F 30.2 in Calm     90% 0 in 0 W/m2
08:39 28.2 °F 25.7 °F 30.2 in Calm     90% 0 in 0 W/m2
08:44 28.2 °F 25.7 °F 30.2 in Calm     90% 0 in 0 W/m2
08:49 28.2 °F 25.7 °F 30.2 in Calm     90% 0 in 0 W/m2
08:54 28.2 °F 25.7 °F 30.2 in Calm     90% 0 in 0 W/m2
09:00 28.2 °F 25.7 °F 30.2 in Calm     90% 0 in 5 W/m2
09:05 28.4 °F 25.9 °F 30.2 in Calm     90% 0 in 5 W/m2
09:10 28.6 °F 26.1 °F 30.2 in Calm     90% 0 in 7 W/m2
09:15 28.6 °F 26.1 °F 30.2 in Calm     90% 0 in 7 W/m2
09:20 28.6 °F 26.1 °F 30.2 in Calm     90% 0 in 9 W/m2
09:25 28.6 °F 26.1 °F 30.2 in Calm     90% 0 in 9 W/m2
09:30 28.6 °F 26.1 °F 30.2 in Calm     90% 0 in 11 W/m2
09:35 28.8 °F 26.2 °F 30.2 in Calm     90% 0 in 11 W/m2
09:40 28.8 °F 26.2 °F 30.2 in Calm     90% 0 in 11 W/m2
09:50 28.9 °F 26.4 °F 30.2 in Calm     90% 0 in 11 W/m2
09:55 28.9 °F 26.1 °F 30.2 in Calm     89% 0 in 11 W/m2
10:00 28.9 °F 26.1 °F 30.2 in Calm     89% 0 in 11 W/m2
Juneau County Weather
Compliments of Weather Underground - 2 mb